createdAt,value
2024-01-05T00:03:53.320Z,97331.63
2024-01-05T00:08:55.571Z,97327.59
2024-01-05T00:13:57.607Z,97316.09
2024-01-05T00:19:00.425Z,97315.78
2024-01-05T00:24:02.727Z,97314.53
2024-01-05T00:29:04.692Z,97320.25
2024-01-05T00:34:06.899Z,97322.75
2024-01-05T00:39:09.282Z,97320.47
2024-01-05T00:44:11.428Z,97323.84
2024-01-05T00:49:13.423Z,97325.53
2024-01-05T00:54:15.565Z,97324.81
2024-01-05T00:59:20.402Z,97316.81
2024-01-05T01:04:23.001Z,97311.38
2024-01-05T01:09:25.471Z,97316.50
2024-01-05T01:14:27.418Z,97312.63
2024-01-05T01:19:29.545Z,97305.28
2024-01-05T01:24:31.692Z,97311.44
2024-01-05T01:29:33.641Z,97313.94
2024-01-05T01:34:35.604Z,97313.28
2024-01-05T01:39:38.016Z,97304.78
2024-01-05T01:44:40.068Z,97310.28
2024-01-05T01:49:42.327Z,97291.88
2024-01-05T01:54:46.376Z,97295.97
2024-01-05T01:59:48.785Z,97281.94
2024-01-05T02:04:53.028Z,97270.59
2024-01-05T02:09:55.327Z,97282.75
2024-01-05T02:14:57.204Z,97273.81
2024-01-05T02:19:59.665Z,97268.53
2024-01-05T02:25:03.215Z,97266.78
2024-01-05T02:30:05.801Z,97263.91
2024-01-05T02:35:08.395Z,97271.97
2024-01-05T02:40:12.880Z,97266.03
2024-01-05T02:45:14.993Z,97271.31
2024-01-05T02:50:17.555Z,97260.91
2024-01-05T02:55:19.593Z,97259.13
2024-01-05T03:00:21.802Z,97255.25
2024-01-05T03:05:24.139Z,97249.47
2024-01-05T03:10:26.477Z,97247.69
2024-01-05T03:15:28.404Z,97243.38
2024-01-05T03:20:30.408Z,97242.41
2024-01-05T03:25:33.417Z,97245.78
2024-01-05T03:30:35.672Z,97242.41
2024-01-05T03:35:39.096Z,97227.81
2024-01-05T03:40:41.053Z,97210.63
2024-01-05T03:45:43.205Z,97206.59
2024-01-05T03:50:45.227Z,97188.13
2024-01-05T03:55:47.158Z,97189.88
2024-01-05T04:00:49.433Z,97179.09
2024-01-05T04:05:51.659Z,97175.88
2024-01-05T04:10:53.878Z,97170.91
2024-01-05T04:15:55.892Z,97159.97
2024-01-05T04:20:58.282Z,97144.72
2024-01-05T04:26:00.396Z,97145.53
2024-01-05T04:31:02.610Z,97144.72
2024-01-05T04:36:05.107Z,97132.03
2024-01-05T04:41:07.408Z,97121.59
2024-01-05T04:46:09.528Z,97105.25
2024-01-05T04:51:11.932Z,97115.53
2024-01-05T04:56:14.230Z,97108.78
2024-01-05T05:01:16.702Z,97108.41
2024-01-05T05:06:18.904Z,97087.22
2024-01-05T05:11:21.719Z,97099.25
2024-01-05T05:16:23.646Z,97111.28
2024-01-05T05:21:27.060Z,97126.69
2024-01-05T05:26:29.342Z,97136.16
2024-01-05T05:31:31.847Z,97131.81
2024-01-05T05:36:34.107Z,97136.16
2024-01-05T05:41:36.178Z,97138.88
2024-01-05T05:46:38.405Z,97140.78
2024-01-05T05:51:40.852Z,97153.75
2024-01-05T05:56:43.139Z,97136.88
2024-01-05T06:01:47.102Z,97141.72
2024-01-05T06:06:49.281Z,97134.38
2024-01-05T06:11:51.540Z,97114.22
2024-01-05T06:16:53.623Z,97130.94
2024-01-05T06:21:55.895Z,97132.84
2024-01-05T06:26:58.068Z,97135.75
2024-01-05T06:32:01.278Z,97130.19
2024-01-05T06:37:03.357Z,97138.69
2024-01-05T06:42:08.262Z,97133.25
2024-01-05T06:47:11.251Z,97125.09
2024-01-05T06:52:13.273Z,97118.50
2024-01-05T06:57:15.646Z,97109.78
2024-01-05T07:02:18.157Z,97116.19
2024-01-05T07:07:20.110Z,97124.91
2024-01-05T07:12:22.330Z,97116.28
2024-01-05T07:17:24.463Z,97109.88
2024-01-05T07:22:26.517Z,97107.69
2024-01-05T07:27:28.642Z,97103.03
2024-01-05T07:32:30.664Z,97097.16
2024-01-05T07:37:32.891Z,97093.97
2024-01-05T07:42:35.079Z,97096.22
2024-01-05T07:47:37.369Z,97100.75
2024-01-05T07:52:39.769Z,97100.94
2024-01-05T07:57:43.213Z,97093.91
2024-01-05T08:02:46.605Z,97097.94
2024-01-05T08:07:48.947Z,97100.34
2024-01-05T08:12:51.053Z,97094.72
2024-01-05T08:17:53.310Z,97096.66
2024-01-05T08:22:55.482Z,97082.84
2024-01-05T08:27:57.727Z,97087.66
2024-01-05T08:33:00.192Z,97084.63
2024-01-05T08:38:03.773Z,97074.53
2024-01-05T08:43:05.995Z,97063.94
2024-01-05T08:48:08.299Z,97059.13
2024-01-05T08:53:10.725Z,97061.06
2024-01-05T08:58:12.820Z,97061.38
2024-01-05T09:03:15.306Z,97058.69
2024-01-05T09:08:17.565Z,97044.06
2024-01-05T09:13:19.584Z,97046.31
2024-01-05T09:18:21.899Z,97056.59
2024-01-05T09:23:24.174Z,97061.44
2024-01-05T09:28:26.394Z,97052.25
2024-01-05T09:33:28.654Z,97061.44
2024-01-05T09:38:31.459Z,97061.75
2024-01-05T09:43:33.570Z,97055.47
2024-01-05T09:48:43.380Z,97059.78
2024-01-05T09:53:50.698Z,97047.94
2024-01-05T09:58:53.376Z,97041.09
2024-01-05T10:04:05.255Z,97039.53
2024-01-05T10:09:07.993Z,97043.66
2024-01-05T10:14:15.207Z,97053.00
2024-01-05T10:19:19.425Z,97043.81
2024-01-05T10:24:24.718Z,97037.41
2024-01-05T10:29:29.436Z,97024.38
2024-01-05T10:34:36.550Z,97008.44
2024-01-05T10:39:39.515Z,97017.50
2024-01-05T10:44:46.660Z,97013.81
2024-01-05T10:49:52.137Z,96999.66
2024-01-05T10:54:55.042Z,96991.28
2024-01-05T10:59:58.149Z,96988.06
2024-01-05T11:05:14.128Z,96978.56
2024-01-05T11:10:25.618Z,96964.53
2024-01-05T11:15:52.469Z,96963.22
2024-01-05T11:21:14.982Z,96963.16
2024-01-05T11:26:43.881Z,96963.75
2024-01-05T11:31:49.130Z,96954.19
2024-01-05T11:36:51.472Z,96944.44
2024-01-05T11:41:53.690Z,96938.22
2024-01-05T11:46:57.229Z,96921.97
2024-01-05T11:51:59.209Z,96913.97
2024-01-05T11:57:03.018Z,96915.78
2024-01-05T12:02:05.032Z,96921.13
2024-01-05T12:07:07.034Z,96921.41
2024-01-05T12:12:19.116Z,96903.13
2024-01-05T12:17:21.519Z,96897.78
2024-01-05T12:22:23.449Z,96916.22
2024-01-05T12:27:25.408Z,96911.69
2024-01-05T12:32:30.973Z,96915.88
2024-01-05T12:37:33.694Z,96922.47
2024-01-05T12:42:36.738Z,96924.88
2024-01-05T12:47:39.067Z,96926.13
2024-01-05T12:52:41.481Z,96919.63
2024-01-05T12:57:43.567Z,96915.34
2024-01-05T13:02:45.553Z,96908.03
2024-01-05T13:07:47.818Z,96917.56
2024-01-05T13:12:50.121Z,96921.13
2024-01-05T13:17:53.407Z,96921.47
2024-01-05T13:22:57.120Z,96913.09
2024-01-05T13:27:59.806Z,96918.63
2024-01-05T13:33:01.981Z,96918.63
2024-01-05T13:38:05.471Z,96915.25
2024-01-05T13:43:09.403Z,96910.09
2024-01-05T13:48:11.476Z,96907.94
2024-01-05T13:53:15.584Z,96910.53
2024-01-05T13:58:17.744Z,96918.44
2024-01-05T14:03:19.751Z,96918.63
2024-01-05T14:08:24.005Z,96922.38
2024-01-05T14:13:26.372Z,96926.91
2024-01-05T14:18:28.516Z,96938.22
2024-01-05T14:23:30.708Z,96938.41
2024-01-05T14:28:32.680Z,96940.38
2024-01-05T14:33:34.680Z,96944.72
2024-01-05T14:38:39.405Z,96947.50
2024-01-05T14:43:41.430Z,96951.84
2024-01-05T14:48:45.313Z,96944.28
2024-01-05T14:53:47.273Z,96938.50
2024-01-05T14:58:51.416Z,96934.66
2024-01-05T15:03:53.945Z,96934.22
2024-01-05T15:08:56.631Z,96943.47
2024-01-05T15:13:58.496Z,96940.34
2024-01-05T15:19:00.993Z,96945.22
2024-01-05T15:24:04.617Z,96943.19
2024-01-05T15:29:06.989Z,96948.88
2024-01-05T15:34:09.186Z,96946.00
2024-01-05T15:39:11.634Z,96944.75
2024-01-05T15:44:13.716Z,96935.13
2024-01-05T15:49:15.827Z,96940.63
2024-01-05T15:54:18.664Z,96947.75
2024-01-05T15:59:20.826Z,96951.31
2024-01-05T16:04:23.919Z,96959.22
2024-01-05T16:09:25.888Z,96962.44
2024-01-05T16:14:27.871Z,96961.91
2024-01-05T16:19:29.863Z,96960.59
2024-01-05T16:24:31.973Z,96963.00
2024-01-05T16:29:35.002Z,96979.91
2024-01-05T16:34:37.217Z,96984.09
2024-01-05T16:39:40.592Z,96984.09
2024-01-05T16:44:45.100Z,97001.97
2024-01-05T16:49:47.261Z,97006.16
2024-01-05T16:54:49.433Z,97004.03
2024-01-05T16:59:51.704Z,97007.25
2024-01-05T17:04:54.478Z,97003.69
2024-01-05T17:09:56.754Z,96994.81
2024-01-05T17:14:58.960Z,96992.03
2024-01-05T17:20:16.418Z,96987.50
2024-01-05T17:25:23.458Z,96983.94
2024-01-05T17:30:26.152Z,96989.28
2024-01-05T17:35:28.117Z,97003.53
2024-01-05T17:40:30.049Z,96999.06
2024-01-05T17:45:32.012Z,96987.66
2024-01-05T17:50:34.183Z,96987.88
2024-01-05T17:55:36.495Z,96996.47
2024-01-05T18:00:38.739Z,97000.72
2024-01-05T18:05:41.189Z,97008.81
2024-01-05T18:10:43.396Z,97004.28
2024-01-05T18:15:45.277Z,97001.53
2024-01-05T18:20:47.336Z,97007.50
2024-01-05T18:25:49.658Z,97005.88
2024-01-05T18:30:51.767Z,97013.78
2024-01-05T18:35:55.212Z,97010.75
2024-01-05T18:40:57.304Z,97012.88
2024-01-05T18:45:59.571Z,97017.75
2024-01-05T18:51:02.078Z,97023.41
2024-01-05T18:56:07.621Z,97021.34
2024-01-05T19:01:11.879Z,97020.88
2024-01-05T19:06:18.557Z,97030.56
2024-01-05T19:11:21.345Z,97031.06
2024-01-05T19:16:24.097Z,97032.53
2024-01-05T19:21:26.027Z,97041.28
2024-01-05T19:26:28.081Z,97040.34
2024-01-05T19:31:30.173Z,97040.22
2024-01-05T19:36:33.351Z,97045.41
2024-01-05T19:41:35.316Z,97052.66
2024-01-05T19:46:39.299Z,97050.72
2024-01-05T19:51:49.123Z,97050.38
2024-01-05T19:56:52.239Z,97048.28
2024-01-05T20:01:54.218Z,97043.13
2024-01-05T20:06:56.259Z,97051.53
2024-01-05T20:11:58.196Z,97047.69
2024-01-05T20:17:01.247Z,97044.97
2024-01-05T20:22:06.602Z,97050.78
2024-01-05T20:27:10.489Z,97049.50
2024-01-05T20:32:12.648Z,97055.63
2024-01-05T20:37:14.618Z,97048.53
2024-01-05T20:42:16.575Z,97053.03
2024-01-05T20:47:18.661Z,97054.00
2024-01-05T20:52:20.741Z,97051.75
2024-01-05T20:57:22.745Z,97045.00
2024-01-05T21:02:24.655Z,97041.13
2024-01-05T21:07:27.019Z,97044.66
2024-01-05T21:12:28.971Z,97040.47
2024-01-05T21:17:31.167Z,97039.16
2024-01-05T21:22:33.315Z,97034.47
2024-01-05T21:27:35.368Z,97044.78
2024-01-05T21:32:37.392Z,97044.94
2024-01-05T21:37:39.995Z,97049.47
2024-01-05T21:42:42.077Z,97040.13
2024-01-05T21:47:44.076Z,97053.00
2024-01-05T21:52:46.004Z,97049.47
2024-01-05T21:57:47.856Z,97050.25
2024-01-05T22:02:50.912Z,97056.22
2024-01-05T22:07:53.560Z,97067.16
2024-01-05T22:12:55.793Z,97063.78
2024-01-05T22:17:57.864Z,97055.09
2024-01-05T22:23:00.289Z,97053.16
2024-01-05T22:28:02.241Z,97056.53
2024-01-05T22:33:04.435Z,97054.59
2024-01-05T22:38:06.581Z,97063.94
2024-01-05T22:43:08.477Z,97059.59
2024-01-05T22:48:10.526Z,97067.94
2024-01-05T22:53:12.523Z,97068.75
2024-01-05T22:58:14.360Z,97059.41
2024-01-05T23:03:16.296Z,97052.66
2024-01-05T23:08:21.899Z,97045.25
2024-01-05T23:13:25.161Z,97052.50
2024-01-05T23:18:27.841Z,97054.13
2024-01-05T23:23:30.889Z,97052.38
2024-01-05T23:28:32.898Z,97070.09
2024-01-05T23:33:35.183Z,97071.72
2024-01-05T23:38:37.838Z,97073.19
2024-01-05T23:43:39.895Z,97076.25
2024-01-05T23:48:43.599Z,97076.56
2024-01-05T23:53:45.611Z,97066.91
2024-01-05T23:58:47.733Z,97071.44
